sensor_id;sensor_type;location;lat;lon;timestamp;P1;durP1;ratioP1;P2;durP2;ratioP2
11618;SDS011;5865;48.776;9.280;2023-05-24T00:00:42;3.20;;;2.83;;
11618;SDS011;5865;48.776;9.280;2023-05-24T00:03:10;2.97;;;2.67;;
11618;SDS011;5865;48.776;9.280;2023-05-24T00:05:40;5.83;;;2.97;;
11618;SDS011;5865;48.776;9.280;2023-05-24T00:08:07;3.30;;;2.80;;
11618;SDS011;5865;48.776;9.280;2023-05-24T00:10:34;3.10;;;2.70;;
11618;SDS011;5865;48.776;9.280;2023-05-24T00:13:03;3.77;;;2.80;;
11618;SDS011;5865;48.776;9.280;2023-05-24T00:15:30;3.67;;;2.67;;
11618;SDS011;5865;48.776;9.280;2023-05-24T00:17:57;5.50;;;2.93;;
11618;SDS011;5865;48.776;9.280;2023-05-24T00:20:24;4.27;;;2.77;;
11618;SDS011;5865;48.776;9.280;2023-05-24T00:22:52;3.73;;;2.80;;
11618;SDS011;5865;48.776;9.280;2023-05-24T00:25:21;4.53;;;2.63;;
11618;SDS011;5865;48.776;9.280;2023-05-24T00:27:48;5.13;;;2.90;;
11618;SDS011;5865;48.776;9.280;2023-05-24T00:30:16;4.03;;;2.67;;
11618;SDS011;5865;48.776;9.280;2023-05-24T00:32:43;5.47;;;2.53;;
11618;SDS011;5865;48.776;9.280;2023-05-24T00:35:10;3.30;;;2.60;;
11618;SDS011;5865;48.776;9.280;2023-05-24T00:37:52;4.37;;;2.60;;
11618;SDS011;5865;48.776;9.280;2023-05-24T00:40:18;4.03;;;2.60;;
11618;SDS011;5865;48.776;9.280;2023-05-24T00:42:46;3.77;;;2.60;;
11618;SDS011;5865;48.776;9.280;2023-05-24T00:45:13;4.57;;;2.47;;
11618;SDS011;5865;48.776;9.280;2023-05-24T00:47:41;6.07;;;2.70;;
11618;SDS011;5865;48.776;9.280;2023-05-24T00:50:09;5.13;;;2.70;;
11618;SDS011;5865;48.776;9.280;2023-05-24T00:52:39;5.90;;;2.97;;
11618;SDS011;5865;48.776;9.280;2023-05-24T00:55:08;3.20;;;2.30;;
11618;SDS011;5865;48.776;9.280;2023-05-24T00:57:35;5.40;;;2.97;;
11618;SDS011;5865;48.776;9.280;2023-05-24T01:00:02;5.03;;;2.40;;
11618;SDS011;5865;48.776;9.280;2023-05-24T01:02:32;4.57;;;2.87;;
11618;SDS011;5865;48.776;9.280;2023-05-24T01:05:00;5.90;;;2.90;;
11618;SDS011;5865;48.776;9.280;2023-05-24T01:07:36;6.43;;;2.93;;
11618;SDS011;5865;48.776;9.280;2023-05-24T01:10:13;7.93;;;3.03;;
11618;SDS011;5865;48.776;9.280;2023-05-24T01:12:49;5.90;;;2.77;;
11618;SDS011;5865;48.776;9.280;2023-05-24T01:15:40;6.63;;;2.90;;
11618;SDS011;5865;48.776;9.280;2023-05-24T01:18:15;6.37;;;2.57;;
11618;SDS011;5865;48.776;9.280;2023-05-24T01:20:58;6.53;;;3.00;;
11618;SDS011;5865;48.776;9.280;2023-05-24T01:23:34;6.53;;;2.90;;
11618;SDS011;5865;48.776;9.280;2023-05-24T01:26:13;7.80;;;2.80;;
11618;SDS011;5865;48.776;9.280;2023-05-24T01:28:47;8.47;;;3.20;;
11618;SDS011;5865;48.776;9.280;2023-05-24T01:31:15;6.63;;;2.83;;
11618;SDS011;5865;48.776;9.280;2023-05-24T01:33:47;7.60;;;2.60;;
11618;SDS011;5865;48.776;9.280;2023-05-24T01:36:21;6.30;;;2.90;;
11618;SDS011;5865;48.776;9.280;2023-05-24T01:38:48;7.27;;;3.17;;
11618;SDS011;5865;48.776;9.280;2023-05-24T01:41:21;6.40;;;3.10;;
11618;SDS011;5865;48.776;9.280;2023-05-24T01:43:58;7.53;;;3.07;;
11618;SDS011;5865;48.776;9.280;2023-05-24T01:46:34;5.43;;;2.97;;
11618;SDS011;5865;48.776;9.280;2023-05-24T01:49:05;7.67;;;3.17;;
11618;SDS011;5865;48.776;9.280;2023-05-24T01:51:37;8.57;;;3.20;;
11618;SDS011;5865;48.776;9.280;2023-05-24T01:54:09;6.63;;;3.10;;
11618;SDS011;5865;48.776;9.280;2023-05-24T01:56:38;9.10;;;3.30;;
11618;SDS011;5865;48.776;9.280;2023-05-24T01:59:08;6.43;;;3.23;;
11618;SDS011;5865;48.776;9.280;2023-05-24T02:01:35;7.07;;;3.53;;
11618;SDS011;5865;48.776;9.280;2023-05-24T02:04:03;6.33;;;2.90;;
11618;SDS011;5865;48.776;9.280;2023-05-24T02:06:30;6.73;;;2.93;;
11618;SDS011;5865;48.776;9.280;2023-05-24T02:08:58;7.97;;;2.70;;
11618;SDS011;5865;48.776;9.280;2023-05-24T02:11:24;7.10;;;3.03;;
11618;SDS011;5865;48.776;9.280;2023-05-24T02:13:51;9.33;;;3.40;;
11618;SDS011;5865;48.776;9.280;2023-05-24T02:22:48;6.77;;;3.37;;
11618;SDS011;5865;48.776;9.280;2023-05-24T02:25:16;5.67;;;3.30;;
11618;SDS011;5865;48.776;9.280;2023-05-24T02:27:43;8.47;;;3.20;;
11618;SDS011;5865;48.776;9.280;2023-05-24T02:30:12;7.30;;;3.27;;
11618;SDS011;5865;48.776;9.280;2023-05-24T02:32:39;9.03;;;3.20;;
11618;SDS011;5865;48.776;9.280;2023-05-24T02:35:07;5.47;;;3.40;;
11618;SDS011;5865;48.776;9.280;2023-05-24T02:37:34;9.37;;;3.20;;
11618;SDS011;5865;48.776;9.280;2023-05-24T02:40:01;8.90;;;3.27;;
11618;SDS011;5865;48.776;9.280;2023-05-24T02:42:29;8.30;;;3.30;;
11618;SDS011;5865;48.776;9.280;2023-05-24T02:44:56;9.27;;;3.00;;
11618;SDS011;5865;48.776;9.280;2023-05-24T02:47:23;8.10;;;3.13;;
11618;SDS011;5865;48.776;9.280;2023-05-24T02:49:51;8.50;;;3.60;;
11618;SDS011;5865;48.776;9.280;2023-05-24T02:52:20;7.33;;;3.53;;
11618;SDS011;5865;48.776;9.280;2023-05-24T02:55:01;7.67;;;3.23;;
11618;SDS011;5865;48.776;9.280;2023-05-24T02:57:29;10.37;;;3.57;;
11618;SDS011;5865;48.776;9.280;2023-05-24T02:59:58;6.30;;;3.27;;
11618;SDS011;5865;48.776;9.280;2023-05-24T03:02:25;6.17;;;3.40;;
11618;SDS011;5865;48.776;9.280;2023-05-24T03:04:54;8.63;;;3.30;;
11618;SDS011;5865;48.776;9.280;2023-05-24T03:07:23;9.77;;;3.57;;
11618;SDS011;5865;48.776;9.280;2023-05-24T03:09:50;7.50;;;3.70;;
11618;SDS011;5865;48.776;9.280;2023-05-24T03:12:16;8.33;;;3.60;;
11618;SDS011;5865;48.776;9.280;2023-05-24T03:14:57;8.33;;;3.50;;
11618;SDS011;5865;48.776;9.280;2023-05-24T03:17:24;10.07;;;3.73;;
11618;SDS011;5865;48.776;9.280;2023-05-24T03:19:51;6.23;;;3.40;;
11618;SDS011;5865;48.776;9.280;2023-05-24T03:22:23;6.80;;;3.13;;
11618;SDS011;5865;48.776;9.280;2023-05-24T03:24:50;9.97;;;3.67;;
11618;SDS011;5865;48.776;9.280;2023-05-24T03:27:17;7.67;;;3.47;;
11618;SDS011;5865;48.776;9.280;2023-05-24T03:29:44;8.97;;;3.67;;
11618;SDS011;5865;48.776;9.280;2023-05-24T03:32:11;7.40;;;3.10;;
11618;SDS011;5865;48.776;9.280;2023-05-24T03:34:38;6.90;;;3.13;;
11618;SDS011;5865;48.776;9.280;2023-05-24T03:37:19;6.00;;;3.30;;
11618;SDS011;5865;48.776;9.280;2023-05-24T03:39:48;8.97;;;3.27;;
11618;SDS011;5865;48.776;9.280;2023-05-24T03:42:29;11.13;;;3.70;;
11618;SDS011;5865;48.776;9.280;2023-05-24T03:44:56;8.30;;;3.50;;
11618;SDS011;5865;48.776;9.280;2023-05-24T03:47:24;6.27;;;3.23;;
11618;SDS011;5865;48.776;9.280;2023-05-24T03:49:56;8.30;;;3.33;;
11618;SDS011;5865;48.776;9.280;2023-05-24T03:52:23;9.67;;;3.60;;
11618;SDS011;5865;48.776;9.280;2023-05-24T03:54:51;11.50;;;3.50;;
11618;SDS011;5865;48.776;9.280;2023-05-24T03:57:19;7.87;;;3.70;;
11618;SDS011;5865;48.776;9.280;2023-05-24T04:00:00;9.43;;;3.47;;
11618;SDS011;5865;48.776;9.280;2023-05-24T04:02:39;5.67;;;3.20;;
11618;SDS011;5865;48.776;9.280;2023-05-24T04:05:20;9.70;;;3.83;;
11618;SDS011;5865;48.776;9.280;2023-05-24T04:07:55;7.27;;;3.60;;
11618;SDS011;5865;48.776;9.280;2023-05-24T04:10:25;7.67;;;3.47;;
11618;SDS011;5865;48.776;9.280;2023-05-24T04:12:52;7.23;;;3.73;;
11618;SDS011;5865;48.776;9.280;2023-05-24T04:15:21;10.37;;;3.80;;
11618;SDS011;5865;48.776;9.280;2023-05-24T04:17:48;7.33;;;3.67;;
11618;SDS011;5865;48.776;9.280;2023-05-24T04:20:20;7.50;;;3.73;;
11618;SDS011;5865;48.776;9.280;2023-05-24T04:22:49;8.87;;;4.00;;
11618;SDS011;5865;48.776;9.280;2023-05-24T04:25:16;7.40;;;3.40;;
11618;SDS011;5865;48.776;9.280;2023-05-24T04:27:45;6.47;;;3.60;;
11618;SDS011;5865;48.776;9.280;2023-05-24T04:30:13;7.77;;;3.70;;
11618;SDS011;5865;48.776;9.280;2023-05-24T04:32:41;9.37;;;3.93;;
11618;SDS011;5865;48.776;9.280;2023-05-24T04:35:08;8.87;;;3.43;;
11618;SDS011;5865;48.776;9.280;2023-05-24T04:37:36;7.07;;;3.53;;
11618;SDS011;5865;48.776;9.280;2023-05-24T04:40:05;8.57;;;3.57;;
11618;SDS011;5865;48.776;9.280;2023-05-24T04:42:33;6.30;;;3.50;;
11618;SDS011;5865;48.776;9.280;2023-05-24T04:45:02;9.13;;;4.07;;
11618;SDS011;5865;48.776;9.280;2023-05-24T04:47:29;6.37;;;3.80;;
11618;SDS011;5865;48.776;9.280;2023-05-24T04:49:56;9.87;;;4.23;;
11618;SDS011;5865;48.776;9.280;2023-05-24T04:52:23;9.57;;;3.90;;
11618;SDS011;5865;48.776;9.280;2023-05-24T04:54:51;7.10;;;3.67;;
11618;SDS011;5865;48.776;9.280;2023-05-24T04:57:19;8.77;;;3.57;;
11618;SDS011;5865;48.776;9.280;2023-05-24T04:59:47;8.53;;;3.70;;
11618;SDS011;5865;48.776;9.280;2023-05-24T05:02:15;7.03;;;3.50;;
11618;SDS011;5865;48.776;9.280;2023-05-24T05:04:44;7.17;;;3.60;;
11618;SDS011;5865;48.776;9.280;2023-05-24T05:07:11;7.97;;;3.57;;
11618;SDS011;5865;48.776;9.280;2023-05-24T05:09:38;6.37;;;3.53;;
11618;SDS011;5865;48.776;9.280;2023-05-24T05:12:05;9.13;;;3.87;;
11618;SDS011;5865;48.776;9.280;2023-05-24T05:14:47;10.23;;;3.63;;
11618;SDS011;5865;48.776;9.280;2023-05-24T05:17:30;6.57;;;3.30;;
11618;SDS011;5865;48.776;9.280;2023-05-24T05:19:57;7.60;;;3.30;;
11618;SDS011;5865;48.776;9.280;2023-05-24T05:25:15;6.90;;;3.53;;
11618;SDS011;5865;48.776;9.280;2023-05-24T05:27:42;10.33;;;3.90;;
11618;SDS011;5865;48.776;9.280;2023-05-24T05:30:23;7.87;;;3.67;;
11618;SDS011;5865;48.776;9.280;2023-05-24T05:39:06;7.33;;;3.40;;
11618;SDS011;5865;48.776;9.280;2023-05-24T05:41:47;6.17;;;3.73;;
11618;SDS011;5865;48.776;9.280;2023-05-24T05:44:28;8.17;;;3.63;;
11618;SDS011;5865;48.776;9.280;2023-05-24T05:47:10;14.07;;;4.43;;
11618;SDS011;5865;48.776;9.280;2023-05-24T05:49:37;11.43;;;3.93;;
11618;SDS011;5865;48.776;9.280;2023-05-24T06:01:47;9.37;;;3.50;;
11618;SDS011;5865;48.776;9.280;2023-05-24T06:04:28;7.83;;;3.50;;
11618;SDS011;5865;48.776;9.280;2023-05-24T06:07:09;12.23;;;3.60;;
11618;SDS011;5865;48.776;9.280;2023-05-24T06:09:50;7.47;;;3.50;;
11618;SDS011;5865;48.776;9.280;2023-05-24T06:12:31;7.60;;;3.20;;
11618;SDS011;5865;48.776;9.280;2023-05-24T06:15:12;8.30;;;3.43;;
11618;SDS011;5865;48.776;9.280;2023-05-24T06:24:27;8.43;;;3.73;;
11618;SDS011;5865;48.776;9.280;2023-05-24T06:26:58;8.67;;;3.13;;
11618;SDS011;5865;48.776;9.280;2023-05-24T06:29:40;7.50;;;3.00;;
11618;SDS011;5865;48.776;9.280;2023-05-24T06:32:20;7.57;;;3.53;;
11618;SDS011;5865;48.776;9.280;2023-05-24T06:35:02;5.67;;;3.40;;
11618;SDS011;5865;48.776;9.280;2023-05-24T06:37:43;7.33;;;3.23;;
11618;SDS011;5865;48.776;9.280;2023-05-24T06:43:41;6.57;;;3.10;;
11618;SDS011;5865;48.776;9.280;2023-05-24T06:46:22;8.83;;;3.47;;
11618;SDS011;5865;48.776;9.280;2023-05-24T06:49:03;7.43;;;3.27;;
11618;SDS011;5865;48.776;9.280;2023-05-24T06:51:31;8.57;;;3.53;;
11618;SDS011;5865;48.776;9.280;2023-05-24T06:54:12;7.53;;;3.40;;
11618;SDS011;5865;48.776;9.280;2023-05-24T06:56:44;6.93;;;3.37;;
11618;SDS011;5865;48.776;9.280;2023-05-24T07:18:26;8.37;;;3.80;;
11618;SDS011;5865;48.776;9.280;2023-05-24T07:21:07;7.50;;;3.43;;
11618;SDS011;5865;48.776;9.280;2023-05-24T07:23:34;9.47;;;3.63;;
11618;SDS011;5865;48.776;9.280;2023-05-24T07:26:02;7.33;;;3.50;;
11618;SDS011;5865;48.776;9.280;2023-05-24T07:28:44;9.57;;;3.43;;
11618;SDS011;5865;48.776;9.280;2023-05-24T07:31:25;6.57;;;3.37;;
11618;SDS011;5865;48.776;9.280;2023-05-24T08:08:37;8.03;;;3.50;;
11618;SDS011;5865;48.776;9.280;2023-05-24T08:11:06;9.00;;;3.73;;
11618;SDS011;5865;48.776;9.280;2023-05-24T08:13:43;8.33;;;3.50;;
11618;SDS011;5865;48.776;9.280;2023-05-24T08:16:24;7.17;;;3.10;;
11618;SDS011;5865;48.776;9.280;2023-05-24T08:19:04;8.10;;;3.10;;
11618;SDS011;5865;48.776;9.280;2023-05-24T08:24:50;9.23;;;3.80;;
11618;SDS011;5865;48.776;9.280;2023-05-24T08:27:17;6.38;;;3.10;;
11618;SDS011;5865;48.776;9.280;2023-05-24T08:29:46;6.53;;;3.40;;
11618;SDS011;5865;48.776;9.280;2023-05-24T08:32:27;7.27;;;3.53;;
11618;SDS011;5865;48.776;9.280;2023-05-24T08:35:08;8.67;;;3.27;;
11618;SDS011;5865;48.776;9.280;2023-05-24T08:37:49;8.97;;;3.63;;
11618;SDS011;5865;48.776;9.280;2023-05-24T08:40:28;7.87;;;3.57;;
11618;SDS011;5865;48.776;9.280;2023-05-24T08:42:55;9.47;;;3.37;;
11618;SDS011;5865;48.776;9.280;2023-05-24T08:45:39;8.80;;;3.30;;
11618;SDS011;5865;48.776;9.280;2023-05-24T08:48:21;8.38;;;3.33;;
11618;SDS011;5865;48.776;9.280;2023-05-24T08:50:49;11.43;;;3.20;;
11618;SDS011;5865;48.776;9.280;2023-05-24T08:53:17;9.60;;;3.25;;
11618;SDS011;5865;48.776;9.280;2023-05-24T09:02:00;8.73;;;3.70;;
11618;SDS011;5865;48.776;9.280;2023-05-24T09:04:43;10.90;;;3.60;;
11618;SDS011;5865;48.776;9.280;2023-05-24T09:07:27;9.25;;;3.35;;
11618;SDS011;5865;48.776;9.280;2023-05-24T09:10:02;8.70;;;3.15;;
11618;SDS011;5865;48.776;9.280;2023-05-24T09:12:46;8.05;;;3.58;;
11618;SDS011;5865;48.776;9.280;2023-05-24T09:18:30;10.25;;;3.58;;
11618;SDS011;5865;48.776;9.280;2023-05-24T09:21:11;6.57;;;3.35;;
11618;SDS011;5865;48.776;9.280;2023-05-24T09:23:54;7.53;;;3.00;;
11618;SDS011;5865;48.776;9.280;2023-05-24T09:26:35;10.50;;;3.40;;
11618;SDS011;5865;48.776;9.280;2023-05-24T09:29:20;6.78;;;3.38;;
11618;SDS011;5865;48.776;9.280;2023-05-24T09:34:56;9.97;;;3.30;;
11618;SDS011;5865;48.776;9.280;2023-05-24T09:37:38;10.60;;;3.40;;
11618;SDS011;5865;48.776;9.280;2023-05-24T09:40:19;8.75;;;3.72;;
11618;SDS011;5865;48.776;9.280;2023-05-24T09:43:01;5.25;;;2.92;;
11618;SDS011;5865;48.776;9.280;2023-05-24T09:45:29;7.32;;;3.20;;
11618;SDS011;5865;48.776;9.280;2023-05-24T09:48:10;9.77;;;3.38;;
11618;SDS011;5865;48.776;9.280;2023-05-24T10:00:41;12.57;;;4.23;;
11618;SDS011;5865;48.776;9.280;2023-05-24T10:03:23;10.57;;;3.90;;
11618;SDS011;5865;48.776;9.280;2023-05-24T10:06:06;10.00;;;3.83;;
11618;SDS011;5865;48.776;9.280;2023-05-24T10:08:50;8.97;;;3.80;;
11618;SDS011;5865;48.776;9.280;2023-05-24T10:11:31;7.20;;;3.65;;
11618;SDS011;5865;48.776;9.280;2023-05-24T10:49:50;7.60;;;3.53;;
11618;SDS011;5865;48.776;9.280;2023-05-24T10:52:35;7.77;;;3.60;;
11618;SDS011;5865;48.776;9.280;2023-05-24T10:55:17;9.15;;;3.60;;
11618;SDS011;5865;48.776;9.280;2023-05-24T10:57:49;11.87;;;3.83;;
11618;SDS011;5865;48.776;9.280;2023-05-24T11:00:31;10.98;;;3.65;;
11618;SDS011;5865;48.776;9.280;2023-05-24T11:03:13;8.63;;;3.92;;
11618;SDS011;5865;48.776;9.280;2023-05-24T11:08:52;8.15;;;3.70;;
11618;SDS011;5865;48.776;9.280;2023-05-24T11:11:19;11.23;;;4.00;;
11618;SDS011;5865;48.776;9.280;2023-05-24T11:13:54;6.70;;;3.20;;
11618;SDS011;5865;48.776;9.280;2023-05-24T11:16:31;7.43;;;3.60;;
11618;SDS011;5865;48.776;9.280;2023-05-24T11:19:09;11.25;;;3.95;;
11618;SDS011;5865;48.776;9.280;2023-05-24T11:24:48;10.55;;;4.10;;
11618;SDS011;5865;48.776;9.280;2023-05-24T11:27:30;9.80;;;3.30;;
11618;SDS011;5865;48.776;9.280;2023-05-24T11:30:12;9.23;;;3.15;;
11618;SDS011;5865;48.776;9.280;2023-05-24T11:32:45;7.13;;;3.40;;
11618;SDS011;5865;48.776;9.280;2023-05-24T11:35:13;7.75;;;3.72;;
11618;SDS011;5865;48.776;9.280;2023-05-24T11:37:51;9.52;;;3.72;;
11618;SDS011;5865;48.776;9.280;2023-05-24T11:40:33;12.13;;;3.67;;
11618;SDS011;5865;48.776;9.280;2023-05-24T11:43:09;8.15;;;3.80;;
11618;SDS011;5865;48.776;9.280;2023-05-24T11:45:39;6.88;;;3.03;;
11618;SDS011;5865;48.776;9.280;2023-05-24T11:48:07;10.43;;;3.50;;
11618;SDS011;5865;48.776;9.280;2023-05-24T11:50:38;9.20;;;3.47;;
11618;SDS011;5865;48.776;9.280;2023-05-24T12:11:53;11.05;;;3.47;;
11618;SDS011;5865;48.776;9.280;2023-05-24T12:14:22;5.47;;;2.90;;
11618;SDS011;5865;48.776;9.280;2023-05-24T12:17:04;5.72;;;3.00;;
11618;SDS011;5865;48.776;9.280;2023-05-24T12:19:47;8.98;;;3.35;;
11618;SDS011;5865;48.776;9.280;2023-05-24T12:22:29;6.38;;;2.90;;
11618;SDS011;5865;48.776;9.280;2023-05-24T12:37:42;9.27;;;3.20;;
11618;SDS011;5865;48.776;9.280;2023-05-24T12:40:24;5.43;;;2.60;;
11618;SDS011;5865;48.776;9.280;2023-05-24T12:43:12;7.28;;;2.83;;
11618;SDS011;5865;48.776;9.280;2023-05-24T12:45:53;9.13;;;3.15;;
11618;SDS011;5865;48.776;9.280;2023-05-24T12:48:34;6.47;;;2.63;;
11618;SDS011;5865;48.776;9.280;2023-05-24T13:49:10;5.90;;;2.70;;
11618;SDS011;5865;48.776;9.280;2023-05-24T13:51:38;6.13;;;2.85;;
11618;SDS011;5865;48.776;9.280;2023-05-24T13:54:19;5.13;;;2.40;;
11618;SDS011;5865;48.776;9.280;2023-05-24T13:57:01;5.85;;;2.42;;
11618;SDS011;5865;48.776;9.280;2023-05-24T13:59:45;6.75;;;2.70;;
11618;SDS011;5865;48.776;9.280;2023-05-24T14:02:28;7.72;;;2.65;;
11618;SDS011;5865;48.776;9.280;2023-05-24T14:14:51;8.25;;;3.08;;
11618;SDS011;5865;48.776;9.280;2023-05-24T14:17:18;7.30;;;3.17;;
11618;SDS011;5865;48.776;9.280;2023-05-24T14:19:45;8.10;;;2.85;;
11618;SDS011;5865;48.776;9.280;2023-05-24T14:22:12;5.13;;;2.55;;
11618;SDS011;5865;48.776;9.280;2023-05-24T14:24:39;5.53;;;2.65;;
11618;SDS011;5865;48.776;9.280;2023-05-24T14:27:06;5.50;;;2.38;;
11618;SDS011;5865;48.776;9.280;2023-05-24T14:29:33;5.15;;;2.50;;
11618;SDS011;5865;48.776;9.280;2023-05-24T14:32:01;6.25;;;2.40;;
11618;SDS011;5865;48.776;9.280;2023-05-24T14:34:29;5.82;;;2.30;;
11618;SDS011;5865;48.776;9.280;2023-05-24T14:36:56;4.55;;;2.03;;
11618;SDS011;5865;48.776;9.280;2023-05-24T14:39:22;6.93;;;2.40;;
11618;SDS011;5865;48.776;9.280;2023-05-24T14:41:49;6.85;;;2.67;;
11618;SDS011;5865;48.776;9.280;2023-05-24T14:44:16;8.50;;;2.38;;
11618;SDS011;5865;48.776;9.280;2023-05-24T14:46:44;5.00;;;2.47;;
11618;SDS011;5865;48.776;9.280;2023-05-24T14:49:13;4.38;;;2.20;;
11618;SDS011;5865;48.776;9.280;2023-05-24T14:51:40;6.65;;;2.28;;
11618;SDS011;5865;48.776;9.280;2023-05-24T14:54:09;5.95;;;2.67;;
11618;SDS011;5865;48.776;9.280;2023-05-24T14:56:36;6.07;;;2.53;;
11618;SDS011;5865;48.776;9.280;2023-05-24T14:59:03;5.03;;;2.40;;
11618;SDS011;5865;48.776;9.280;2023-05-24T15:01:30;7.80;;;2.90;;
11618;SDS011;5865;48.776;9.280;2023-05-24T15:03:57;5.95;;;2.38;;
11618;SDS011;5865;48.776;9.280;2023-05-24T15:06:27;5.88;;;2.40;;
11618;SDS011;5865;48.776;9.280;2023-05-24T15:08:58;4.32;;;2.03;;
11618;SDS011;5865;48.776;9.280;2023-05-24T15:11:26;5.07;;;2.13;;
11618;SDS011;5865;48.776;9.280;2023-05-24T15:13:54;3.85;;;2.10;;
11618;SDS011;5865;48.776;9.280;2023-05-24T15:16:22;4.63;;;2.42;;
11618;SDS011;5865;48.776;9.280;2023-05-24T15:18:50;5.18;;;2.30;;
11618;SDS011;5865;48.776;9.280;2023-05-24T15:21:17;6.07;;;2.22;;
11618;SDS011;5865;48.776;9.280;2023-05-24T15:23:45;4.55;;;2.22;;
11618;SDS011;5865;48.776;9.280;2023-05-24T15:26:13;5.07;;;2.20;;
11618;SDS011;5865;48.776;9.280;2023-05-24T15:28:40;4.65;;;2.22;;
11618;SDS011;5865;48.776;9.280;2023-05-24T15:31:07;4.72;;;2.10;;
11618;SDS011;5865;48.776;9.280;2023-05-24T15:33:35;5.18;;;2.25;;
11618;SDS011;5865;48.776;9.280;2023-05-24T15:36:02;6.32;;;2.65;;
11618;SDS011;5865;48.776;9.280;2023-05-24T15:38:29;6.70;;;2.60;;
11618;SDS011;5865;48.776;9.280;2023-05-24T15:40:57;5.07;;;2.20;;
11618;SDS011;5865;48.776;9.280;2023-05-24T15:43:24;5.75;;;2.30;;
11618;SDS011;5865;48.776;9.280;2023-05-24T15:45:51;4.85;;;2.40;;
11618;SDS011;5865;48.776;9.280;2023-05-24T15:48:18;4.53;;;2.30;;
11618;SDS011;5865;48.776;9.280;2023-05-24T15:50:46;10.40;;;2.75;;
11618;SDS011;5865;48.776;9.280;2023-05-24T15:53:13;5.68;;;2.22;;
11618;SDS011;5865;48.776;9.280;2023-05-24T15:55:40;4.65;;;2.05;;
11618;SDS011;5865;48.776;9.280;2023-05-24T15:58:09;5.22;;;2.33;;
11618;SDS011;5865;48.776;9.280;2023-05-24T16:00:37;7.40;;;2.65;;
11618;SDS011;5865;48.776;9.280;2023-05-24T16:03:04;6.13;;;2.65;;
11618;SDS011;5865;48.776;9.280;2023-05-24T16:05:31;4.57;;;2.47;;
11618;SDS011;5865;48.776;9.280;2023-05-24T16:07:58;5.20;;;2.13;;
11618;SDS011;5865;48.776;9.280;2023-05-24T16:10:26;4.55;;;2.30;;
11618;SDS011;5865;48.776;9.280;2023-05-24T16:12:53;4.38;;;1.90;;
11618;SDS011;5865;48.776;9.280;2023-05-24T16:15:21;5.53;;;2.10;;
11618;SDS011;5865;48.776;9.280;2023-05-24T16:17:50;10.65;;;6.97;;
11618;SDS011;5865;48.776;9.280;2023-05-24T16:20:17;14.98;;;8.57;;
11618;SDS011;5865;48.776;9.280;2023-05-24T16:22:47;11.43;;;6.25;;
11618;SDS011;5865;48.776;9.280;2023-05-24T16:25:14;5.72;;;2.60;;
11618;SDS011;5865;48.776;9.280;2023-05-24T16:27:42;4.25;;;2.00;;
11618;SDS011;5865;48.776;9.280;2023-05-24T16:30:09;5.35;;;2.10;;
11618;SDS011;5865;48.776;9.280;2023-05-24T16:32:38;6.93;;;2.20;;
11618;SDS011;5865;48.776;9.280;2023-05-24T16:35:05;5.30;;;2.75;;
11618;SDS011;5865;48.776;9.280;2023-05-24T16:37:32;5.22;;;2.25;;
11618;SDS011;5865;48.776;9.280;2023-05-24T16:40:00;7.43;;;2.20;;
11618;SDS011;5865;48.776;9.280;2023-05-24T16:42:27;5.15;;;2.08;;
11618;SDS011;5865;48.776;9.280;2023-05-24T16:44:54;3.83;;;2.13;;
11618;SDS011;5865;48.776;9.280;2023-05-24T16:47:21;4.35;;;2.00;;
11618;SDS011;5865;48.776;9.280;2023-05-24T16:49:50;5.68;;;2.30;;
11618;SDS011;5865;48.776;9.280;2023-05-24T16:52:16;4.95;;;1.85;;
11618;SDS011;5865;48.776;9.280;2023-05-24T16:54:43;6.68;;;2.35;;
11618;SDS011;5865;48.776;9.280;2023-05-24T16:57:10;4.80;;;2.05;;
11618;SDS011;5865;48.776;9.280;2023-05-24T16:59:37;6.75;;;2.30;;
11618;SDS011;5865;48.776;9.280;2023-05-24T17:02:06;5.55;;;2.22;;
11618;SDS011;5865;48.776;9.280;2023-05-24T17:04:33;3.75;;;2.05;;
11618;SDS011;5865;48.776;9.280;2023-05-24T17:07:01;4.38;;;2.20;;
11618;SDS011;5865;48.776;9.280;2023-05-24T17:09:28;5.50;;;2.20;;
11618;SDS011;5865;48.776;9.280;2023-05-24T17:11:55;7.43;;;2.28;;
11618;SDS011;5865;48.776;9.280;2023-05-24T17:14:22;5.88;;;2.20;;
11618;SDS011;5865;48.776;9.280;2023-05-24T17:16:49;5.15;;;2.00;;
11618;SDS011;5865;48.776;9.280;2023-05-24T17:19:16;5.95;;;2.03;;
11618;SDS011;5865;48.776;9.280;2023-05-24T17:21:45;6.93;;;2.55;;
11618;SDS011;5865;48.776;9.280;2023-05-24T17:24:15;4.95;;;2.05;;
11618;SDS011;5865;48.776;9.280;2023-05-24T17:26:42;3.78;;;1.92;;
11618;SDS011;5865;48.776;9.280;2023-05-24T17:29:09;5.22;;;2.08;;
11618;SDS011;5865;48.776;9.280;2023-05-24T17:31:36;4.82;;;2.10;;
11618;SDS011;5865;48.776;9.280;2023-05-24T17:34:03;5.18;;;2.10;;
11618;SDS011;5865;48.776;9.280;2023-05-24T17:36:30;5.32;;;1.98;;
11618;SDS011;5865;48.776;9.280;2023-05-24T17:39:00;6.38;;;2.10;;
11618;SDS011;5865;48.776;9.280;2023-05-24T17:41:30;5.05;;;1.95;;
11618;SDS011;5865;48.776;9.280;2023-05-24T17:43:57;4.45;;;2.20;;
11618;SDS011;5865;48.776;9.280;2023-05-24T17:46:24;3.20;;;1.65;;
11618;SDS011;5865;48.776;9.280;2023-05-24T17:48:52;3.50;;;1.83;;
11618;SDS011;5865;48.776;9.280;2023-05-24T17:51:19;7.82;;;2.25;;
11618;SDS011;5865;48.776;9.280;2023-05-24T17:53:48;6.43;;;2.10;;
11618;SDS011;5865;48.776;9.280;2023-05-24T17:56:15;3.97;;;1.90;;
11618;SDS011;5865;48.776;9.280;2023-05-24T17:58:44;5.97;;;1.98;;
11618;SDS011;5865;48.776;9.280;2023-05-24T18:01:11;4.32;;;1.88;;
11618;SDS011;5865;48.776;9.280;2023-05-24T18:03:39;3.60;;;2.00;;
11618;SDS011;5865;48.776;9.280;2023-05-24T18:06:06;5.68;;;1.98;;
11618;SDS011;5865;48.776;9.280;2023-05-24T18:08:35;5.15;;;2.13;;
11618;SDS011;5865;48.776;9.280;2023-05-24T18:11:02;4.55;;;1.92;;
11618;SDS011;5865;48.776;9.280;2023-05-24T18:13:32;3.90;;;1.80;;
11618;SDS011;5865;48.776;9.280;2023-05-24T18:16:00;4.85;;;2.13;;
11618;SDS011;5865;48.776;9.280;2023-05-24T18:18:28;4.38;;;2.03;;
11618;SDS011;5865;48.776;9.280;2023-05-24T18:20:57;4.78;;;2.00;;
11618;SDS011;5865;48.776;9.280;2023-05-24T18:23:24;2.97;;;1.70;;
11618;SDS011;5865;48.776;9.280;2023-05-24T18:25:51;5.97;;;2.05;;
11618;SDS011;5865;48.776;9.280;2023-05-24T18:28:19;6.37;;;2.27;;
11618;SDS011;5865;48.776;9.280;2023-05-24T20:11:21;4.10;;;1.73;;
11618;SDS011;5865;48.776;9.280;2023-05-24T20:13:49;6.27;;;1.97;;
11618;SDS011;5865;48.776;9.280;2023-05-24T20:16:18;3.53;;;1.53;;
11618;SDS011;5865;48.776;9.280;2023-05-24T20:18:50;4.33;;;1.73;;
11618;SDS011;5865;48.776;9.280;2023-05-24T20:21:26;3.97;;;1.60;;
11618;SDS011;5865;48.776;9.280;2023-05-24T20:24:10;2.90;;;1.77;;
11618;SDS011;5865;48.776;9.280;2023-05-24T20:29:54;4.80;;;1.60;;
11618;SDS011;5865;48.776;9.280;2023-05-24T20:32:39;4.27;;;1.50;;
11618;SDS011;5865;48.776;9.280;2023-05-24T20:35:25;4.00;;;1.83;;
11618;SDS011;5865;48.776;9.280;2023-05-24T20:38:16;2.87;;;1.50;;
11618;SDS011;5865;48.776;9.280;2023-05-24T20:40:54;3.30;;;1.63;;
11618;SDS011;5865;48.776;9.280;2023-05-24T20:43:41;4.73;;;1.87;;
11618;SDS011;5865;48.776;9.280;2023-05-24T20:46:23;4.77;;;1.80;;
11618;SDS011;5865;48.776;9.280;2023-05-24T20:49:01;4.73;;;1.90;;
11618;SDS011;5865;48.776;9.280;2023-05-24T20:51:45;4.13;;;1.80;;
11618;SDS011;5865;48.776;9.280;2023-05-24T20:54:28;2.43;;;1.73;;
11618;SDS011;5865;48.776;9.280;2023-05-24T20:57:10;4.63;;;1.90;;
11618;SDS011;5865;48.776;9.280;2023-05-24T20:59:45;3.37;;;1.80;;
11618;SDS011;5865;48.776;9.280;2023-05-24T21:05:17;3.33;;;1.63;;
11618;SDS011;5865;48.776;9.280;2023-05-24T21:07:54;3.23;;;1.70;;
11618;SDS011;5865;48.776;9.280;2023-05-24T21:10:23;7.40;;;1.90;;
11618;SDS011;5865;48.776;9.280;2023-05-24T21:13:07;3.93;;;1.90;;
11618;SDS011;5865;48.776;9.280;2023-05-24T21:15:38;4.93;;;1.63;;
11618;SDS011;5865;48.776;9.280;2023-05-24T21:21:35;3.50;;;1.90;;
11618;SDS011;5865;48.776;9.280;2023-05-24T21:24:03;4.70;;;1.50;;
11618;SDS011;5865;48.776;9.280;2023-05-24T21:26:39;3.90;;;1.80;;
11618;SDS011;5865;48.776;9.280;2023-05-24T21:29:08;4.10;;;1.70;;
11618;SDS011;5865;48.776;9.280;2023-05-24T21:31:38;5.57;;;2.30;;
11618;SDS011;5865;48.776;9.280;2023-05-24T21:34:06;4.70;;;1.60;;